Time;durP1;ratioP1;P1;durP2;ratioP2;P2;SDS_P1;SDS_P2;PMS_P1;PMS_P2;Temp;Humidity;BMP_temperature;BMP_pressure;BME280_temperature;BME280_humidity;BME280_pressure;Samples;Min_cycle;Max_cycle;Signal;HPM_P1;HPM_P2
2023/08/08 00:03:45;;;;;;;1.02;0.70;;;;;;;;;;10568586;27;20396;-78
2023/08/08 00:08:52;;;;;;;0.50;0.50;;;;;;;;;;10588670;27;20046;-78
2023/08/08 00:13:56;;;;;;;1.55;0.60;;;;;;;;;;10545211;27;20127;-78
2023/08/08 00:19:05;;;;;;;2.33;0.75;;;;;;;;;;10561317;27;20119;-78
2023/08/08 00:24:15;;;;;;;0.65;0.47;;;;;;;;;;10553439;27;20047;-78
2023/08/08 00:29:22;;;;;;;2.90;0.80;;;;;;;;;;10560175;28;20044;-79
2023/08/08 00:34:46;;;;;;;0.90;0.57;;;;;;;;;;10550947;28;20482;-78
2023/08/08 00:40:01;;;;;;;0.77;0.28;;;;;;;;;;10562441;28;20047;-79
2023/08/08 00:45:09;;;;;;;1.05;0.63;;;;;;;;;;10572721;27;20051;-77
2023/08/08 00:50:21;;;;;;;0.85;0.57;;;;;;;;;;10568907;27;20051;-77
2023/08/08 00:55:27;;;;;;;0.73;0.35;;;;;;;;;;10566844;27;20439;-77
2023/08/08 01:00:34;;;;;;;0.57;0.50;;;;;;;;;;10568977;27;20123;-77
2023/08/08 01:05:52;;;;;;;0.98;0.57;;;;;;;;;;10563151;27;20050;-77
2023/08/08 01:11:04;;;;;;;2.33;0.90;;;;;;;;;;10565430;27;20114;-78
2023/08/08 01:16:14;;;;;;;0.50;0.50;;;;;;;;;;10566278;27;20061;-77
2023/08/08 01:21:25;;;;;;;2.75;0.50;;;;;;;;;;10572153;27;20130;-77
2023/08/08 01:26:32;;;;;;;1.75;0.73;;;;;;;;;;10568165;27;20051;-77
2023/08/08 01:31:39;;;;;;;0.57;0.57;;;;;;;;;;10590351;27;20050;-77
2023/08/08 01:37:03;;;;;;;1.77;0.70;;;;;;;;;;10580776;27;20055;-76
2023/08/08 01:42:11;;;;;;;1.42;0.55;;;;;;;;;;10591693;27;20039;-76
2023/08/08 01:47:20;;;;;;;1.13;0.70;;;;;;;;;;10585962;27;20147;-77
2023/08/08 01:52:27;;;;;;;1.55;0.80;;;;;;;;;;10583614;27;20067;-76
2023/08/08 02:03:06;;;;;;;0.77;0.57;;;;;;;;;;10595419;27;20091;-76
2023/08/08 02:08:12;;;;;;;1.20;0.43;;;;;;;;;;10612867;27;20039;-76
2023/08/08 02:13:23;;;;;;;2.63;0.63;;;;;;;;;;10607149;27;20103;-78
2023/08/08 02:18:36;;;;;;;0.20;0.20;;;;;;;;;;10612590;27;20039;-77
2023/08/08 02:23:43;;;;;;;0.65;0.40;;;;;;;;;;10624378;27;20042;-77
2023/08/08 02:28:54;;;;;;;1.23;0.65;;;;;;;;;;10628803;27;20073;-77
2023/08/08 02:34:11;;;;;;;1.13;0.50;;;;;;;;;;10570331;27;20066;-77
2023/08/08 02:39:21;;;;;;;0.40;0.40;;;;;;;;;;10600396;27;20127;-77
2023/08/08 02:44:29;;;;;;;1.27;0.80;;;;;;;;;;10575002;27;20040;-77
2023/08/08 02:49:35;;;;;;;1.52;0.85;;;;;;;;;;10564417;27;20058;-77
2023/08/08 02:54:42;;;;;;;1.30;0.80;;;;;;;;;;10544171;27;20047;-77
2023/08/08 02:59:55;;;;;;;2.35;0.80;;;;;;;;;;10569661;27;20145;-77
2023/08/08 03:04:59;;;;;;;2.05;0.90;;;;;;;;;;10587796;27;20047;-76
2023/08/08 03:10:08;;;;;;;1.52;0.68;;;;;;;;;;10567344;27;20048;-77
2023/08/08 03:15:19;;;;;;;3.03;0.70;;;;;;;;;;10571253;27;20051;-78
2023/08/08 03:20:23;;;;;;;1.85;0.73;;;;;;;;;;10580881;27;20036;-77
2023/08/08 03:25:31;;;;;;;2.90;0.90;;;;;;;;;;10573733;27;20044;-77
2023/08/08 03:30:40;;;;;;;0.80;0.77;;;;;;;;;;10556082;27;20130;-77
2023/08/08 03:35:49;;;;;;;1.58;0.93;;;;;;;;;;10564060;27;20150;-77
2023/08/08 03:40:54;;;;;;;0.57;0.32;;;;;;;;;;10554068;27;20101;-77
2023/08/08 03:46:04;;;;;;;0.85;0.68;;;;;;;;;;10566911;27;20052;-77
2023/08/08 03:51:27;;;;;;;0.98;0.65;;;;;;;;;;10556967;27;20455;-77
2023/08/08 03:56:34;;;;;;;3.95;1.00;;;;;;;;;;10568393;27;20059;-78
2023/08/08 04:01:41;;;;;;;1.98;0.95;;;;;;;;;;10581373;27;20044;-78
2023/08/08 04:06:49;;;;;;;0.82;0.70;;;;;;;;;;10575051;27;20070;-77
2023/08/08 04:11:59;;;;;;;1.80;0.95;;;;;;;;;;10539352;27;20043;-77
2023/08/08 04:17:16;;;;;;;2.72;0.95;;;;;;;;;;10565395;27;20074;-77
2023/08/08 04:22:22;;;;;;;1.25;0.82;;;;;;;;;;10548876;27;20051;-77
2023/08/08 04:27:29;;;;;;;1.58;0.77;;;;;;;;;;10569861;27;20035;-78
2023/08/08 04:32:36;;;;;;;1.30;0.77;;;;;;;;;;10538179;28;20072;-76
2023/08/08 04:37:43;;;;;;;0.82;0.68;;;;;;;;;;10537541;28;20054;-77
2023/08/08 04:42:51;;;;;;;1.33;0.80;;;;;;;;;;10549153;28;20519;-77
2023/08/08 04:48:02;;;;;;;1.30;0.40;;;;;;;;;;10574182;28;20514;-77
2023/08/08 04:53:09;;;;;;;3.13;1.10;;;;;;;;;;10574089;28;20051;-76
2023/08/08 04:58:14;;;;;;;1.25;0.80;;;;;;;;;;10585678;28;20050;-77
2023/08/08 05:03:26;;;;;;;2.53;1.00;;;;;;;;;;10571681;28;20063;-76
2023/08/08 05:08:56;;;;;;;1.40;0.98;;;;;;;;;;10574523;28;20120;-76
2023/08/08 05:14:12;;;;;;;1.02;0.80;;;;;;;;;;10572624;28;20040;-79
2023/08/08 05:19:26;;;;;;;3.05;1.10;;;;;;;;;;10556395;28;20041;-78
2023/08/08 05:24:31;;;;;;;2.38;0.85;;;;;;;;;;10572094;27;20040;-75
2023/08/08 05:30:02;;;;;;;1.55;0.93;;;;;;;;;;10569602;27;20055;-78
2023/08/08 05:35:13;;;;;;;1.73;1.17;;;;;;;;;;10578743;27;20122;-79
2023/08/08 05:40:31;;;;;;;1.70;1.00;;;;;;;;;;10569653;27;20093;-76
2023/08/08 05:45:49;;;;;;;1.35;1.15;;;;;;;;;;10569682;27;20126;-75
2023/08/08 05:51:02;;;;;;;2.13;1.05;;;;;;;;;;10577066;27;20038;-76
2023/08/08 05:56:09;;;;;;;1.73;0.80;;;;;;;;;;10543523;27;20118;-78
2023/08/08 06:01:14;;;;;;;0.90;0.65;;;;;;;;;;10576046;27;20134;-77
2023/08/08 06:06:34;;;;;;;0.95;0.70;;;;;;;;;;10560348;27;20043;-77
2023/08/08 06:11:40;;;;;;;3.22;1.20;;;;;;;;;;10567826;27;20040;-78
2023/08/08 06:16:44;;;;;;;0.98;0.75;;;;;;;;;;10562786;27;20149;-76
2023/08/08 06:27:20;;;;;;;1.10;0.80;;;;;;;;;;10557200;28;20142;-77
2023/08/08 06:32:29;;;;;;;1.17;0.60;;;;;;;;;;10547707;27;20176;-77
2023/08/08 06:37:46;;;;;;;1.40;0.40;;;;;;;;;;10569690;27;20051;-78
2023/08/08 06:42:51;;;;;;;2.80;1.38;;;;;;;;;;10551583;27;20054;-77
2023/08/08 06:48:00;;;;;;;1.75;0.90;;;;;;;;;;10572892;27;20472;-77
2023/08/08 06:53:14;;;;;;;1.25;0.70;;;;;;;;;;10568117;27;20059;-77
2023/08/08 06:58:27;;;;;;;2.20;1.05;;;;;;;;;;10573065;28;20043;-76
2023/08/08 07:03:36;;;;;;;1.55;0.82;;;;;;;;;;10571463;27;20083;-77
2023/08/08 07:08:43;;;;;;;2.08;1.00;;;;;;;;;;10548182;27;20051;-77
2023/08/08 07:13:51;;;;;;;0.93;0.80;;;;;;;;;;10572016;27;20040;-76
2023/08/08 07:19:00;;;;;;;1.75;1.10;;;;;;;;;;10573387;27;20044;-74
2023/08/08 07:24:15;;;;;;;3.20;1.17;;;;;;;;;;10566319;27;20070;-76
2023/08/08 07:29:23;;;;;;;2.67;1.13;;;;;;;;;;10547555;27;20411;-76
2023/08/08 07:34:32;;;;;;;1.85;0.90;;;;;;;;;;10565988;27;20039;-77
2023/08/08 07:39:44;;;;;;;2.33;1.02;;;;;;;;;;10551382;27;20043;-76
2023/08/08 07:44:59;;;;;;;1.30;1.20;;;;;;;;;;10544273;27;20048;-76
2023/08/08 07:50:04;;;;;;;0.80;0.80;;;;;;;;;;10530784;27;20043;-77
2023/08/08 07:55:13;;;;;;;0.98;0.85;;;;;;;;;;10561074;27;20075;-76
2023/08/08 08:00:26;;;;;;;1.92;1.20;;;;;;;;;;10544830;27;20036;-76
2023/08/08 08:05:32;;;;;;;2.05;1.40;;;;;;;;;;10536520;28;20039;-78
2023/08/08 08:10:39;;;;;;;1.40;1.30;;;;;;;;;;10566030;27;20095;-77
2023/08/08 08:15:44;;;;;;;2.92;1.40;;;;;;;;;;10568148;27;20502;-76
2023/08/08 08:20:49;;;;;;;3.03;1.20;;;;;;;;;;10542676;28;20130;-77
2023/08/08 08:25:56;;;;;;;3.35;1.48;;;;;;;;;;10548726;27;20059;-77
2023/08/08 08:31:08;;;;;;;1.38;1.20;;;;;;;;;;10560930;28;20050;-77
2023/08/08 08:36:14;;;;;;;2.22;1.30;;;;;;;;;;10558146;28;20421;-77
2023/08/08 08:41:21;;;;;;;2.67;1.63;;;;;;;;;;10552649;28;20078;-77
2023/08/08 08:46:27;;;;;;;1.80;1.25;;;;;;;;;;10558796;28;20074;-76
2023/08/08 08:51:47;;;;;;;3.83;2.20;;;;;;;;;;10533203;28;20108;-77
2023/08/08 08:57:01;;;;;;;2.57;1.73;;;;;;;;;;10552766;28;20072;-78
2023/08/08 09:02:07;;;;;;;1.38;1.27;;;;;;;;;;10562917;27;20226;-77
2023/08/08 09:07:11;;;;;;;2.75;1.50;;;;;;;;;;10563410;27;20036;-77
2023/08/08 09:12:19;;;;;;;3.00;1.33;;;;;;;;;;10586348;27;20027;-75
2023/08/08 09:17:28;;;;;;;1.67;1.58;;;;;;;;;;10554104;27;20043;-77
2023/08/08 09:23:00;;;;;;;2.28;1.15;;;;;;;;;;10558991;28;20100;-77
2023/08/08 09:28:10;;;;;;;1.58;1.48;;;;;;;;;;10559094;27;20036;-75
2023/08/08 09:33:15;;;;;;;2.92;1.75;;;;;;;;;;10564297;27;20410;-76
2023/08/08 09:38:23;;;;;;;1.45;1.00;;;;;;;;;;10564514;27;20062;-76
2023/08/08 09:43:32;;;;;;;2.60;1.35;;;;;;;;;;10553287;27;20103;-77
2023/08/08 09:48:41;;;;;;;2.55;1.38;;;;;;;;;;10572429;27;20047;-77
2023/08/08 09:53:49;;;;;;;1.67;1.30;;;;;;;;;;10569125;27;20105;-77
2023/08/08 09:59:13;;;;;;;2.55;0.90;;;;;;;;;;10568062;27;20058;-76
2023/08/08 10:04:27;;;;;;;2.13;1.38;;;;;;;;;;10579504;27;20048;-77
2023/08/08 10:09:41;;;;;;;1.90;0.90;;;;;;;;;;10578515;27;20051;-77
2023/08/08 10:14:49;;;;;;;2.65;1.20;;;;;;;;;;10577862;27;20042;-77
2023/08/08 10:20:11;;;;;;;1.83;1.10;;;;;;;;;;10579533;27;20105;-77
2023/08/08 10:25:20;;;;;;;3.47;1.60;;;;;;;;;;10560028;27;20044;-76
2023/08/08 10:30:38;;;;;;;2.72;1.08;;;;;;;;;;10572942;27;20529;-76
2023/08/08 10:35:57;;;;;;;1.73;1.30;;;;;;;;;;10574222;27;20066;-76
2023/08/08 10:41:20;;;;;;;2.60;1.17;;;;;;;;;;10578518;27;20080;-77
2023/08/08 10:46:33;;;;;;;2.75;1.20;;;;;;;;;;10584457;27;20390;-77
2023/08/08 10:51:46;;;;;;;1.52;1.20;;;;;;;;;;10560958;27;20027;-77
2023/08/08 10:57:20;;;;;;;2.55;1.40;;;;;;;;;;10574922;27;20035;-77
2023/08/08 11:02:28;;;;;;;3.35;1.40;;;;;;;;;;10564407;27;20043;-75
2023/08/08 11:07:38;;;;;;;2.35;0.90;;;;;;;;;;10560615;27;20145;-77
2023/08/08 11:13:09;;;;;;;3.38;1.10;;;;;;;;;;10552969;27;20051;-77
2023/08/08 11:18:34;;;;;;;1.77;1.17;;;;;;;;;;10558465;27;20074;-76
2023/08/08 11:24:06;;;;;;;1.80;1.38;;;;;;;;;;10550047;27;20139;-77
2023/08/08 11:29:11;;;;;;;3.25;1.42;;;;;;;;;;10568215;27;20044;-76
2023/08/08 11:34:18;;;;;;;3.88;1.42;;;;;;;;;;10563022;27;20031;-77
2023/08/08 11:39:26;;;;;;;2.42;1.20;;;;;;;;;;10560336;27;20101;-76
2023/08/08 11:44:36;;;;;;;1.77;1.05;;;;;;;;;;10560528;27;20112;-76
2023/08/08 11:49:48;;;;;;;2.38;1.10;;;;;;;;;;10564024;27;20040;-77
2023/08/08 11:54:57;;;;;;;2.10;1.25;;;;;;;;;;10581897;27;20039;-77
2023/08/08 12:00:08;;;;;;;2.47;1.40;;;;;;;;;;10564537;27;20133;-76
2023/08/08 12:05:12;;;;;;;1.95;1.30;;;;;;;;;;10563527;27;20212;-76
2023/08/08 12:10:49;;;;;;;3.05;1.08;;;;;;;;;;10565800;27;20062;-77
2023/08/08 12:15:57;;;;;;;1.95;1.50;;;;;;;;;;10546888;27;20130;-76
2023/08/08 12:21:30;;;;;;;1.02;1.00;;;;;;;;;;10569783;27;20058;-79
2023/08/08 12:26:38;;;;;;;1.50;1.20;;;;;;;;;;10565976;27;20497;-77
2023/08/08 12:31:45;;;;;;;1.67;1.40;;;;;;;;;;10562709;28;20079;-77
2023/08/08 12:36:52;;;;;;;2.10;1.27;;;;;;;;;;10541811;28;20452;-77
2023/08/08 12:41:59;;;;;;;1.98;1.20;;;;;;;;;;10562695;28;20035;-77
2023/08/08 12:47:07;;;;;;;3.92;1.30;;;;;;;;;;10555566;28;20052;-78
2023/08/08 12:52:18;;;;;;;4.05;1.40;;;;;;;;;;10566597;28;20041;-77
2023/08/08 12:57:44;;;;;;;2.03;1.20;;;;;;;;;;10542005;28;20135;-78
2023/08/08 13:02:54;;;;;;;1.90;1.40;;;;;;;;;;10555449;28;20072;-78
2023/08/08 13:07:59;;;;;;;1.73;0.98;;;;;;;;;;10535411;28;20143;-78
2023/08/08 13:13:10;;;;;;;2.33;1.13;;;;;;;;;;10547837;28;20040;-78
2023/08/08 13:18:17;;;;;;;3.20;1.30;;;;;;;;;;10563435;28;20516;-78
2023/08/08 13:23:27;;;;;;;2.80;1.40;;;;;;;;;;10560192;28;20116;-77
2023/08/08 13:28:38;;;;;;;2.20;1.10;;;;;;;;;;10555675;28;20044;-77
2023/08/08 13:33:47;;;;;;;1.95;1.15;;;;;;;;;;10556916;28;20126;-76
2023/08/08 13:38:53;;;;;;;1.75;1.10;;;;;;;;;;10560079;28;20152;-76
2023/08/08 13:44:02;;;;;;;3.22;1.48;;;;;;;;;;10565621;28;20123;-78
2023/08/08 13:49:12;;;;;;;1.98;1.00;;;;;;;;;;10553135;27;20061;-78
2023/08/08 13:54:16;;;;;;;5.13;1.00;;;;;;;;;;10565082;27;20079;-78
2023/08/08 13:59:26;;;;;;;1.20;1.10;;;;;;;;;;10550453;27;20058;-78
2023/08/08 14:04:44;;;;;;;1.60;1.10;;;;;;;;;;10562550;27;20040;-78
2023/08/08 14:09:51;;;;;;;4.23;1.30;;;;;;;;;;10558214;27;20054;-77
2023/08/08 14:15:10;;;;;;;1.92;1.10;;;;;;;;;;10558100;27;21693;-77
2023/08/08 14:20:24;;;;;;;3.22;1.20;;;;;;;;;;10563327;27;20443;-77
2023/08/08 14:25:31;;;;;;;1.77;1.10;;;;;;;;;;10543191;27;20435;-78
2023/08/08 14:30:39;;;;;;;2.13;1.40;;;;;;;;;;10568118;27;20616;-77
2023/08/08 14:35:47;;;;;;;5.07;1.50;;;;;;;;;;10557317;27;20397;-78
2023/08/08 14:46:34;;;;;;;4.20;1.15;;;;;;;;;;10568003;27;20039;-78
2023/08/08 14:51:44;;;;;;;1.83;1.25;;;;;;;;;;10556146;27;20051;-77
2023/08/08 14:57:01;;;;;;;2.08;1.20;;;;;;;;;;10569651;27;20091;-77
2023/08/08 15:02:09;;;;;;;1.65;1.20;;;;;;;;;;10562434;27;20075;-77
2023/08/08 15:07:15;;;;;;;2.28;1.20;;;;;;;;;;10541972;27;20044;-77
2023/08/08 15:12:42;;;;;;;1.80;1.10;;;;;;;;;;10556701;27;20387;-77
2023/08/08 15:17:52;;;;;;;4.03;1.20;;;;;;;;;;10563786;27;20043;-77
2023/08/08 15:23:01;;;;;;;2.53;1.05;;;;;;;;;;10546133;27;20046;-77
2023/08/08 15:28:08;;;;;;;1.48;1.15;;;;;;;;;;10561556;27;20040;-77
2023/08/08 15:33:45;;;;;;;2.50;1.00;;;;;;;;;;10560584;27;20036;-77
2023/08/08 15:38:52;;;;;;;2.63;1.20;;;;;;;;;;10563813;27;20089;-75
2023/08/08 15:43:57;;;;;;;5.18;2.45;;;;;;;;;;10553805;27;20054;-75
2023/08/08 15:49:01;;;;;;;1.75;1.20;;;;;;;;;;10539147;27;20135;-76
2023/08/08 15:54:22;;;;;;;5.82;1.25;;;;;;;;;;10555441;27;20418;-73
2023/08/08 15:59:32;;;;;;;2.53;1.38;;;;;;;;;;10539299;28;20513;-76
2023/08/08 16:04:37;;;;;;;1.75;1.10;;;;;;;;;;10575221;27;20036;-74
2023/08/08 16:09:42;;;;;;;4.32;2.28;;;;;;;;;;10545672;27;20067;-76
2023/08/08 16:14:50;;;;;;;3.47;1.63;;;;;;;;;;10564748;28;20036;-75
2023/08/08 16:19:54;;;;;;;1.70;1.10;;;;;;;;;;10557793;27;20067;-76
2023/08/08 16:25:10;;;;;;;3.35;1.70;;;;;;;;;;10550446;27;20123;-77
2023/08/08 16:30:21;;;;;;;2.33;1.38;;;;;;;;;;10572100;27;20097;-76
2023/08/08 16:35:33;;;;;;;1.48;1.20;;;;;;;;;;10558618;28;20054;-76
2023/08/08 16:40:42;;;;;;;2.15;1.42;;;;;;;;;;10554224;28;20048;-75
2023/08/08 16:45:49;;;;;;;2.38;1.15;;;;;;;;;;10561711;28;20059;-78
2023/08/08 16:50:56;;;;;;;1.98;1.00;;;;;;;;;;10534325;28;20143;-74
2023/08/08 16:56:07;;;;;;;1.80;1.20;;;;;;;;;;10560037;28;20046;-75
2023/08/08 17:01:21;;;;;;;1.45;1.20;;;;;;;;;;10534989;28;20040;-76
2023/08/08 17:06:30;;;;;;;2.17;1.20;;;;;;;;;;10535969;28;20032;-75
2023/08/08 17:11:38;;;;;;;3.25;1.55;;;;;;;;;;10577342;27;20035;-76
2023/08/08 17:16:51;;;;;;;2.30;1.08;;;;;;;;;;10546834;28;20409;-78
2023/08/08 17:21:57;;;;;;;1.67;1.15;;;;;;;;;;10568572;27;20530;-76
2023/08/08 17:27:06;;;;;;;2.45;1.20;;;;;;;;;;10571674;27;20073;-76
2023/08/08 17:32:13;;;;;;;3.92;1.52;;;;;;;;;;10574839;27;20043;-76
2023/08/08 17:37:17;;;;;;;3.00;1.13;;;;;;;;;;10572336;27;20054;-76
2023/08/08 17:42:26;;;;;;;3.63;1.20;;;;;;;;;;10564598;27;20502;-75
2023/08/08 17:47:33;;;;;;;2.40;1.30;;;;;;;;;;10559915;27;20040;-75
2023/08/08 17:52:37;;;;;;;2.17;1.10;;;;;;;;;;10557027;27;20409;-75
2023/08/08 17:57:46;;;;;;;1.83;1.23;;;;;;;;;;10550453;27;20059;-76
2023/08/08 18:03:10;;;;;;;2.50;1.13;;;;;;;;;;10565733;27;20051;-75
2023/08/08 18:08:15;;;;;;;1.88;0.98;;;;;;;;;;10541918;27;20050;-77
2023/08/08 18:13:22;;;;;;;1.05;0.85;;;;;;;;;;10555828;27;20058;-75
2023/08/08 18:18:32;;;;;;;2.67;1.27;;;;;;;;;;10556497;27;20043;-76
2023/08/08 18:23:37;;;;;;;2.53;1.40;;;;;;;;;;10562273;27;20044;-75
2023/08/08 18:28:43;;;;;;;2.97;1.25;;;;;;;;;;10569398;27;20116;-76
2023/08/08 18:34:01;;;;;;;2.50;1.30;;;;;;;;;;10542127;27;20035;-75
2023/08/08 18:39:08;;;;;;;1.52;1.20;;;;;;;;;;10563501;27;20047;-75
2023/08/08 18:44:14;;;;;;;3.20;1.50;;;;;;;;;;10546982;27;20058;-76
2023/08/08 18:49:21;;;;;;;3.17;1.70;;;;;;;;;;10531031;27;20047;-75
2023/08/08 18:54:25;;;;;;;2.35;1.30;;;;;;;;;;10545718;27;20036;-76
2023/08/08 18:59:28;;;;;;;4.05;1.30;;;;;;;;;;10571025;27;20731;-76
2023/08/08 19:04:32;;;;;;;;;;;;;;;;;;10564472;27;20040;-75
2023/08/08 19:09:42;;;;;;;1.42;1.00;;;;;;;;;;10557076;27;19973;-76
2023/08/08 19:14:47;;;;;;;3.58;1.70;;;;;;;;;;10558536;27;20126;-76
2023/08/08 19:20:00;;;;;;;4.03;1.33;;;;;;;;;;10542758;27;20128;-76
2023/08/08 19:25:11;;;;;;;2.00;1.30;;;;;;;;;;10534180;27;20501;-76
2023/08/08 19:30:15;;;;;;;1.92;1.08;;;;;;;;;;10571086;27;20051;-74
2023/08/08 19:35:27;;;;;;;2.45;1.50;;;;;;;;;;10539415;27;20214;-76
2023/08/08 19:40:45;;;;;;;2.47;1.75;;;;;;;;;;10570170;27;20498;-74
2023/08/08 19:45:53;;;;;;;2.78;1.27;;;;;;;;;;10591603;27;20862;-77
2023/08/08 19:51:07;;;;;;;3.08;1.38;;;;;;;;;;10595885;27;20130;-74
2023/08/08 19:56:22;;;;;;;3.63;1.58;;;;;;;;;;10597710;27;20500;-74
2023/08/08 20:01:34;;;;;;;3.40;1.38;;;;;;;;;;10595282;27;20434;-74
2023/08/08 20:06:39;;;;;;;1.25;0.65;;;;;;;;;;10578582;27;20046;-76
2023/08/08 20:11:49;;;;;;;1.33;0.90;;;;;;;;;;10572391;27;20059;-75
2023/08/08 20:16:52;;;;;;;0.70;0.60;;;;;;;;;;10589361;27;20504;-76
2023/08/08 20:22:02;;;;;;;1.77;1.17;;;;;;;;;;10576574;27;20043;-77
2023/08/08 20:27:32;;;;;;;1.80;1.00;;;;;;;;;;10566455;27;20517;-76
2023/08/08 20:32:35;;;;;;;3.58;1.80;;;;;;;;;;10567171;27;20139;-75
2023/08/08 20:37:45;;;;;;;2.40;1.40;;;;;;;;;;10578218;27;20102;-75
2023/08/08 20:42:55;;;;;;;2.15;1.33;;;;;;;;;;10564361;28;20051;-75
2023/08/08 20:48:01;;;;;;;5.80;1.40;;;;;;;;;;10568966;28;20058;-75
2023/08/08 20:53:05;;;;;;;3.28;1.48;;;;;;;;;;10568403;28;20054;-75
2023/08/08 20:58:15;;;;;;;2.78;1.30;;;;;;;;;;10552723;27;20548;-76
2023/08/08 21:03:20;;;;;;;2.78;1.45;;;;;;;;;;10593865;27;20104;-75
2023/08/08 21:08:25;;;;;;;4.22;1.40;;;;;;;;;;10571191;27;20158;-75
2023/08/08 21:13:45;;;;;;;0.47;0.38;;;;;;;;;;10575556;27;20120;-76
2023/08/08 21:19:03;;;;;;;4.17;1.40;;;;;;;;;;10567116;27;20059;-75
2023/08/08 21:29:40;;;;;;;3.90;1.48;;;;;;;;;;10557344;27;20126;-79
2023/08/08 21:34:45;;;;;;;2.17;1.20;;;;;;;;;;10580756;27;20043;-77
2023/08/08 21:39:59;;;;;;;2.65;1.52;;;;;;;;;;10579298;27;20101;-78
2023/08/08 21:45:15;;;;;;;2.47;1.20;;;;;;;;;;10582409;27;20063;-78
2023/08/08 21:50:22;;;;;;;2.33;1.20;;;;;;;;;;10601914;27;20619;-79
2023/08/08 21:55:30;;;;;;;2.22;1.15;;;;;;;;;;10612449;27;20035;-80
2023/08/08 22:06:02;;;;;;;3.38;1.58;;;;;;;;;;10606560;27;20046;-79
2023/08/08 22:11:18;;;;;;;1.65;1.08;;;;;;;;;;10612651;27;20040;-78
2023/08/08 22:16:30;;;;;;;1.85;1.17;;;;;;;;;;10614022;27;20591;-79
2023/08/08 22:21:38;;;;;;;1.30;0.90;;;;;;;;;;10592376;27;20055;-78
2023/08/08 22:26:42;;;;;;;3.00;1.20;;;;;;;;;;10572361;28;20028;-78
2023/08/08 22:31:51;;;;;;;3.00;1.60;;;;;;;;;;10612675;27;20035;-78
2023/08/08 22:36:57;;;;;;;1.20;0.80;;;;;;;;;;10582742;27;20031;-78
2023/08/08 22:42:07;;;;;;;2.97;1.40;;;;;;;;;;10593817;27;20064;-78
2023/08/08 22:47:17;;;;;;;2.25;1.40;;;;;;;;;;10631104;27;20047;-77
2023/08/08 22:52:29;;;;;;;5.60;1.35;;;;;;;;;;10604768;27;20212;-76
2023/08/08 22:57:43;;;;;;;3.55;1.40;;;;;;;;;;10631812;27;20031;-77
2023/08/08 23:03:05;;;;;;;2.80;1.20;;;;;;;;;;10624273;27;20023;-78
2023/08/08 23:08:15;;;;;;;3.40;1.50;;;;;;;;;;10606934;27;20108;-79
2023/08/08 23:13:21;;;;;;;1.02;0.88;;;;;;;;;;10597597;27;20548;-78
2023/08/08 23:18:30;;;;;;;5.25;1.40;;;;;;;;;;10595046;27;20126;-78
2023/08/08 23:23:43;;;;;;;3.58;1.52;;;;;;;;;;10567935;28;20046;-78
2023/08/08 23:28:50;;;;;;;2.17;1.23;;;;;;;;;;10601993;27;20062;-78
2023/08/08 23:34:26;;;;;;;4.22;1.30;;;;;;;;;;10607062;27;20075;-79
2023/08/08 23:39:35;;;;;;;2.55;1.35;;;;;;;;;;10599996;27;20035;-78
2023/08/08 23:44:52;;;;;;;4.75;1.55;;;;;;;;;;10599195;27;20676;-78
2023/08/08 23:50:03;;;;;;;2.40;0.95;;;;;;;;;;10598549;27;20047;-78
2023/08/08 23:55:14;;;;;;;4.15;1.00;;;;;;;;;;10579324;27;20131;-78
